Time;durP1;ratioP1;P1;durP2;ratioP2;P2;SDS_P1;SDS_P2;PMS_P1;PMS_P2;Temp;Humidity;BMP_temperature;BMP_pressure;BME280_temperature;BME280_humidity;BME280_pressure;Samples;Min_cycle;Max_cycle;Signal;HPM_P1;HPM_P2
2023/12/30 00:00:33;;;;;;;6.47;2.80;;;;;;;8.71;66.38;98473.59;4993765;28;102692;-77
2023/12/30 00:03:01;;;;;;;4.05;2.40;;;;;;;8.76;66.14;98467.81;4978967;28;104105;-77
2023/12/30 00:05:30;;;;;;;4.80;2.60;;;;;;;8.79;66.58;98460.38;4999080;28;104338;-77
2023/12/30 00:07:58;;;;;;;5.40;2.30;;;;;;;8.79;66.11;98468.31;4998055;28;103227;-78
2023/12/30 00:10:26;;;;;;;4.13;2.63;;;;;;;8.86;65.95;98462.38;4995244;28;102667;-77
2023/12/30 00:12:54;;;;;;;4.05;2.30;;;;;;;8.87;66.39;98464.03;4981121;28;104041;-77
2023/12/30 00:19:48;;;;;;;4.28;2.30;;;;;;;8.91;66.14;98462.72;4998831;28;103154;-76
2023/12/30 00:22:19;;;;;;;4.38;2.40;;;;;;;8.92;66.12;98469.63;4995441;28;102683;-76
2023/12/30 00:24:47;;;;;;;4.22;2.30;;;;;;;8.93;66.27;98466.88;4981618;28;102796;-75
2023/12/30 00:27:15;;;;;;;3.63;2.10;;;;;;;8.94;65.97;98457.09;4975488;28;104221;-77
2023/12/30 00:29:43;;;;;;;3.67;2.25;;;;;;;8.88;66.50;98461.25;4977656;28;103360;-77
2023/12/30 00:32:11;;;;;;;3.38;2.05;;;;;;;8.92;66.06;98452.00;4978185;28;102815;-76
2023/12/30 00:34:40;;;;;;;3.25;2.10;;;;;;;8.99;66.37;98446.88;4982263;28;102720;-77
2023/12/30 00:37:09;;;;;;;5.45;2.38;;;;;;;9.00;66.37;98450.34;4997169;28;103251;-77
2023/12/30 00:39:41;;;;;;;3.67;2.20;;;;;;;9.01;65.91;98434.31;4978091;28;104233;-76
2023/12/30 00:42:09;;;;;;;5.53;2.50;;;;;;;9.04;66.01;98456.94;4997794;28;102974;-76
2023/12/30 00:44:37;;;;;;;3.83;2.10;;;;;;;9.05;66.09;98453.31;4999978;28;103798;-76
2023/12/30 00:47:06;;;;;;;3.58;2.00;;;;;;;9.03;66.11;98457.94;4979997;28;103229;-76
2023/12/30 00:49:35;;;;;;;3.30;2.13;;;;;;;9.01;66.10;98463.38;4988875;28;103462;-77
2023/12/30 00:52:03;;;;;;;3.25;1.95;;;;;;;9.09;66.70;98458.13;4996143;28;102677;-76
2023/12/30 00:54:31;;;;;;;4.10;2.50;;;;;;;9.13;67.54;98464.72;4978887;28;104373;-77
2023/12/30 00:57:12;;;;;;;4.65;2.08;;;;;;;9.08;67.35;98459.09;4994456;28;103411;-76
2023/12/30 00:59:43;;;;;;;3.58;2.00;;;;;;;9.07;67.29;98462.72;4976036;28;103340;-77
2023/12/30 01:02:11;;;;;;;4.10;2.28;;;;;;;9.12;67.52;98471.00;4977704;28;102731;-77
2023/12/30 01:04:38;;;;;;;4.43;2.67;;;;;;;9.05;68.28;98475.28;5003119;28;104236;-77
2023/12/30 01:07:06;;;;;;;3.30;2.30;;;;;;;9.08;68.26;98469.66;4996266;28;103232;-77
2023/12/30 01:09:35;;;;;;;4.30;2.40;;;;;;;9.07;68.82;98468.00;5001687;28;103286;-77
2023/12/30 01:12:03;;;;;;;3.30;2.00;;;;;;;9.01;68.69;98468.66;4981100;28;102750;-77
2023/12/30 01:14:32;;;;;;;3.47;2.17;;;;;;;9.07;68.90;98478.56;4998133;28;104091;-76
2023/12/30 01:21:24;;;;;;;5.47;2.20;;;;;;;8.94;69.23;98483.53;4996341;28;103126;-77
2023/12/30 01:23:52;;;;;;;4.18;1.88;;;;;;;8.97;69.05;98496.41;4982411;28;102654;-76
2023/12/30 01:26:21;;;;;;;2.85;1.92;;;;;;;8.99;69.65;98489.16;4981090;28;102787;-76
2023/12/30 01:28:49;;;;;;;3.63;2.15;;;;;;;8.99;69.83;98502.34;4977293;28;105075;-77
2023/12/30 01:31:21;;;;;;;5.53;2.25;;;;;;;8.93;69.80;98503.00;4982970;28;102779;-76
2023/12/30 01:33:49;;;;;;;2.70;2.00;;;;;;;8.93;70.14;98524.97;4985428;28;102719;-77
2023/12/30 01:36:17;;;;;;;3.00;1.70;;;;;;;8.98;70.42;98513.09;4982968;28;102628;-76
2023/12/30 01:38:45;;;;;;;4.30;2.50;;;;;;;8.92;71.43;98525.09;5001275;28;104126;-77
2023/12/30 01:41:13;;;;;;;6.38;2.30;;;;;;;8.94;71.72;98517.88;4998509;28;103189;-77
2023/12/30 01:43:41;;;;;;;3.60;2.22;;;;;;;8.91;71.76;98519.00;4981520;28;102653;-76
2023/12/30 01:46:10;;;;;;;5.40;2.40;;;;;;;8.89;72.17;98528.09;4981066;28;104079;-76
2023/12/30 01:48:40;;;;;;;4.88;2.13;;;;;;;8.90;72.00;98527.09;4980714;28;104234;-75
2023/12/30 01:51:08;;;;;;;2.15;1.77;;;;;;;8.84;72.80;98536.47;4983088;28;104179;-75
2023/12/30 01:53:53;;;;;;;3.53;2.10;;;;;;;8.85;72.62;98522.28;4986013;28;103256;-76
2023/12/30 01:56:22;;;;;;;3.45;2.38;;;;;;;8.86;72.89;98528.41;4984341;28;103015;-76
2023/12/30 01:58:51;;;;;;;3.60;2.20;;;;;;;8.87;72.90;98528.25;4981774;28;103438;-76
2023/12/30 02:01:21;;;;;;;3.75;2.00;;;;;;;8.87;72.77;98527.41;4979890;28;105392;-76
2023/12/30 02:03:51;;;;;;;4.00;2.10;;;;;;;8.88;73.08;98532.56;4982384;28;102706;-75
2023/12/30 02:06:19;;;;;;;2.63;1.90;;;;;;;8.86;72.89;98533.69;4983187;28;103944;-76
2023/12/30 02:08:48;;;;;;;2.78;1.80;;;;;;;8.85;73.12;98539.97;4984425;28;103262;-76
2023/12/30 02:11:16;;;;;;;3.80;2.10;;;;;;;8.78;73.46;98543.25;4981846;28;103260;-77
2023/12/30 02:13:45;;;;;;;3.03;1.83;;;;;;;8.78;73.42;98542.41;4976982;28;102675;-77
2023/12/30 02:20:34;;;;;;;3.28;2.08;;;;;;;8.75;73.90;98546.22;5003384;28;104520;-76
2023/12/30 02:23:05;;;;;;;2.92;1.90;;;;;;;8.74;73.86;98543.72;4982991;28;103397;-76
2023/12/30 02:25:33;;;;;;;4.00;2.15;;;;;;;8.71;73.60;98547.53;4987793;28;102638;-77
2023/12/30 02:28:01;;;;;;;3.55;2.05;;;;;;;8.70;74.09;98547.66;4999813;28;103989;-75
2023/12/30 02:30:30;;;;;;;4.40;2.53;;;;;;;8.64;73.66;98546.50;4994605;28;103211;-77
2023/12/30 02:32:58;;;;;;;3.83;2.13;;;;;;;8.61;74.39;98552.09;4986251;28;103279;-77
2023/12/30 02:35:28;;;;;;;3.55;2.25;;;;;;;8.59;74.60;98564.63;4987499;28;102737;-77
2023/12/30 02:37:55;;;;;;;4.28;2.42;;;;;;;8.63;74.63;98558.03;5000307;28;103815;-77
2023/12/30 02:40:25;;;;;;;3.60;1.80;;;;;;;8.60;75.13;98563.63;4985780;28;104380;-77
2023/12/30 02:42:53;;;;;;;3.85;2.00;;;;;;;8.54;75.19;98565.09;4988127;28;104182;-77
2023/12/30 02:45:21;;;;;;;5.18;1.98;;;;;;;8.49;75.49;98564.75;5003049;28;102723;-76
2023/12/30 02:47:49;;;;;;;3.42;2.10;;;;;;;8.54;74.92;98558.97;4984268;28;102727;-76
2023/12/30 02:50:17;;;;;;;3.40;2.10;;;;;;;8.51;75.25;98556.66;4983650;28;103134;-76
2023/12/30 02:52:45;;;;;;;3.28;1.90;;;;;;;8.51;75.57;98561.94;4978611;28;103245;-77
2023/12/30 02:55:13;;;;;;;3.72;2.22;;;;;;;8.50;75.90;98565.56;4996783;28;102628;-76
2023/12/30 02:57:42;;;;;;;2.58;1.60;;;;;;;8.53;75.46;98570.53;4991453;28;103802;-76
2023/12/30 03:00:17;;;;;;;4.38;2.25;;;;;;;8.52;75.67;98574.16;5000180;28;103272;-77
2023/12/30 03:02:46;;;;;;;3.35;2.22;;;;;;;8.50;75.99;98586.69;5000248;28;103263;-76
2023/12/30 03:05:15;;;;;;;3.65;1.92;;;;;;;8.44;76.89;98588.94;5001977;28;102661;-77
2023/12/30 03:07:43;;;;;;;2.85;1.80;;;;;;;8.46;76.24;98591.44;4981570;28;103648;-77
2023/12/30 03:10:11;;;;;;;4.30;2.30;;;;;;;8.45;76.62;98595.91;4995452;28;103068;-77
2023/12/30 03:12:41;;;;;;;2.70;1.77;;;;;;;8.43;76.74;98587.28;4975653;28;103546;-77
2023/12/30 03:19:29;;;;;;;3.63;2.03;;;;;;;8.37;76.62;98593.19;4999236;28;102817;-77
2023/12/30 03:21:57;;;;;;;3.58;2.10;;;;;;;8.25;76.84;98600.56;4978143;28;104422;-76
2023/12/30 03:24:25;;;;;;;3.15;2.03;;;;;;;8.26;77.13;98602.19;4998645;28;102941;-77
2023/12/30 03:26:53;;;;;;;2.97;1.83;;;;;;;8.32;76.72;98605.19;4979904;28;102680;-77
2023/12/30 03:29:21;;;;;;;2.90;1.70;;;;;;;8.35;76.30;98595.16;4984178;28;102591;-77
2023/12/30 03:31:50;;;;;;;3.35;1.98;;;;;;;8.31;76.63;98609.66;4980280;28;104218;-77
2023/12/30 03:34:18;;;;;;;3.53;1.90;;;;;;;8.36;76.79;98596.81;4980431;28;103731;-76
2023/12/30 03:36:47;;;;;;;2.90;2.00;;;;;;;8.42;76.49;98598.84;4980468;28;102683;-77
2023/12/30 03:39:15;;;;;;;3.55;1.95;;;;;;;8.40;76.69;98608.72;4975346;28;102720;-77
2023/12/30 03:41:43;;;;;;;3.28;1.80;;;;;;;8.43;76.33;98607.56;4978840;28;103427;-77
2023/12/30 03:44:11;;;;;;;4.82;2.28;;;;;;;8.37;76.74;98608.19;4982417;28;103976;-76
2023/12/30 03:46:40;;;;;;;3.97;1.92;;;;;;;8.31;77.09;98604.38;4972688;28;102660;-76
2023/12/30 03:49:08;;;;;;;3.88;2.15;;;;;;;8.35;76.79;98602.25;4995505;28;104506;-76
2023/12/30 03:51:36;;;;;;;3.90;1.90;;;;;;;8.33;76.97;98601.56;4998433;28;103847;-76
2023/12/30 03:54:08;;;;;;;4.18;1.98;;;;;;;8.36;77.25;98601.25;4996283;28;103287;-77
2023/12/30 03:56:39;;;;;;;3.10;1.90;;;;;;;8.32;77.45;98598.13;4996192;28;102691;-76
2023/12/30 03:59:07;;;;;;;3.35;1.85;;;;;;;8.31;77.09;98593.81;4983000;28;104015;-76
2023/12/30 04:01:35;;;;;;;3.20;1.70;;;;;;;8.28;77.29;98594.13;4976506;28;104521;-76
2023/12/30 04:04:03;;;;;;;2.70;1.80;;;;;;;8.33;77.25;98604.22;4990546;28;103245;-76
2023/12/30 04:06:31;;;;;;;3.03;1.80;;;;;;;8.23;77.41;98604.34;4996670;28;102671;-77
2023/12/30 04:09:01;;;;;;;3.83;2.10;;;;;;;8.26;77.38;98599.53;4995438;28;102795;-77
2023/12/30 04:11:30;;;;;;;2.40;1.70;;;;;;;8.25;77.73;98591.78;4991252;28;103442;-77
2023/12/30 04:18:38;;;;;;;2.17;1.60;;;;;;;8.30;77.26;98592.16;4990087;28;102737;-76
2023/12/30 04:21:06;;;;;;;3.08;1.73;;;;;;;8.30;77.08;98600.06;4994777;28;104192;-77
2023/12/30 04:23:35;;;;;;;2.42;1.60;;;;;;;8.32;77.52;98611.31;4979537;28;102714;-76
2023/12/30 04:26:03;;;;;;;2.83;1.60;;;;;;;8.28;77.45;98607.34;4979364;28;103255;-76
2023/12/30 04:28:33;;;;;;;3.00;1.80;;;;;;;8.25;77.87;98607.63;4981353;28;102634;-76
2023/12/30 04:31:01;;;;;;;2.63;1.48;;;;;;;8.28;77.50;98609.97;4995346;28;103836;-76
2023/12/30 04:33:29;;;;;;;3.30;1.90;;;;;;;8.30;77.26;98611.47;4993130;28;102904;-77
2023/12/30 04:35:57;;;;;;;3.33;1.88;;;;;;;8.27;77.39;98617.03;4980259;28;104195;-77
2023/12/30 04:38:25;;;;;;;4.07;2.60;;;;;;;8.22;77.43;98621.13;4990954;28;102609;-76
2023/12/30 04:40:53;;;;;;;3.55;1.88;;;;;;;8.16;77.90;98621.75;4992509;28;102612;-76
2023/12/30 04:43:21;;;;;;;3.60;1.90;;;;;;;8.18;77.83;98619.78;4977295;28;103473;-76
2023/12/30 04:45:50;;;;;;;4.00;2.28;;;;;;;8.07;77.32;98621.69;4999990;28;104221;-76
2023/12/30 04:48:18;;;;;;;3.75;1.98;;;;;;;8.14;77.39;98622.72;5000073;28;102741;-76
2023/12/30 04:50:46;;;;;;;4.97;2.20;;;;;;;8.16;77.41;98616.47;4995749;28;102705;-77
2023/12/30 04:53:14;;;;;;;3.00;1.92;;;;;;;8.20;77.38;98613.38;4999132;28;103416;-77
2023/12/30 04:55:42;;;;;;;3.28;1.80;;;;;;;8.22;77.00;98621.94;4978493;28;105190;-76
2023/12/30 04:58:10;;;;;;;2.75;1.85;;;;;;;8.25;76.95;98628.72;4994704;28;102533;-77
2023/12/30 05:00:38;;;;;;;3.65;2.08;;;;;;;8.29;77.13;98627.44;4975922;28;104018;-76
2023/12/30 05:03:07;;;;;;;3.55;2.00;;;;;;;8.29;76.94;98632.72;4959356;28;104350;-76
2023/12/30 05:05:35;;;;;;;3.42;2.13;;;;;;;8.27;76.69;98629.41;4998271;28;103298;-76
2023/12/30 05:08:04;;;;;;;3.88;2.17;;;;;;;8.25;77.60;98621.66;4979028;28;102617;-76
2023/12/30 05:10:34;;;;;;;2.92;1.70;;;;;;;8.25;77.51;98616.38;4995577;28;104153;-77
2023/12/30 05:13:02;;;;;;;5.05;1.88;;;;;;;8.28;76.83;98625.81;4996785;28;103235;-76
2023/12/30 05:19:44;;;;;;;3.20;1.90;;;;;;;8.20;76.89;98617.81;4998442;28;102705;-75
2023/12/30 05:22:12;;;;;;;3.10;2.00;;;;;;;8.17;76.74;98610.22;4991755;28;103959;-76
2023/12/30 05:24:40;;;;;;;2.78;1.70;;;;;;;8.11;76.84;98609.84;4975445;28;104158;-76
2023/12/30 05:27:08;;;;;;;2.75;1.95;;;;;;;8.00;77.17;98611.91;4980559;28;103036;-76
2023/12/30 05:29:36;;;;;;;3.20;2.00;;;;;;;7.99;76.97;98604.97;4995507;28;102652;-76
2023/12/30 05:32:05;;;;;;;4.07;2.28;;;;;;;7.94;77.27;98598.34;4980174;28;103176;-76
2023/12/30 05:34:32;;;;;;;3.47;2.00;;;;;;;7.91;77.18;98598.69;4978482;28;104435;-76
2023/12/30 05:37:02;;;;;;;3.35;2.00;;;;;;;7.97;76.53;98598.03;4989598;28;103267;-75
2023/12/30 05:39:30;;;;;;;2.85;1.73;;;;;;;7.95;76.68;98601.81;4989916;28;102714;-75
2023/12/30 05:41:58;;;;;;;4.38;1.90;;;;;;;7.92;76.88;98602.13;4993150;28;104150;-75
2023/12/30 05:44:26;;;;;;;4.03;1.77;;;;;;;7.90;76.99;98606.72;4993289;28;103366;-76
2023/12/30 05:46:54;;;;;;;3.00;1.90;;;;;;;7.91;76.88;98609.22;4978567;28;103733;-76
2023/12/30 05:49:22;;;;;;;3.50;1.83;;;;;;;7.85;77.04;98603.72;4983102;28;102637;-75
2023/12/30 05:51:50;;;;;;;2.58;1.70;;;;;;;7.89;76.59;98610.34;4997795;28;102772;-75
2023/12/30 05:54:19;;;;;;;4.20;2.00;;;;;;;7.84;76.79;98602.06;5003514;28;103997;-76
2023/12/30 05:56:47;;;;;;;4.32;1.98;;;;;;;7.80;77.03;98602.38;4996157;28;104478;-76
2023/12/30 05:59:15;;;;;;;2.83;1.67;;;;;;;7.77;77.06;98602.69;4981519;28;102694;-76
2023/12/30 06:01:45;;;;;;;3.63;1.90;;;;;;;7.72;77.16;98604.94;4997383;28;103943;-75
2023/12/30 06:04:13;;;;;;;4.30;2.00;;;;;;;7.77;77.77;98618.50;4992638;28;103289;-76
2023/12/30 06:06:41;;;;;;;3.75;1.80;;;;;;;7.79;77.39;98613.91;4997315;28;103454;-76
2023/12/30 06:09:09;;;;;;;3.35;1.85;;;;;;;7.83;77.26;98614.41;4993867;28;102626;-76
2023/12/30 06:11:39;;;;;;;2.30;1.42;;;;;;;7.87;77.24;98622.84;5001438;28;104518;-75
2023/12/30 06:14:07;;;;;;;3.28;1.77;;;;;;;7.83;76.80;98618.88;4985041;28;104368;-76
2023/12/30 06:16:35;;;;;;;2.85;1.70;;;;;;;7.90;77.20;98617.25;4981801;28;104084;-75
2023/12/30 06:19:03;;;;;;;2.50;1.50;;;;;;;7.91;77.05;98627.69;5002078;28;102640;-75
2023/12/30 06:25:51;;;;;;;2.42;1.60;;;;;;;7.90;76.77;98620.75;4995686;28;103199;-75
2023/12/30 06:28:20;;;;;;;3.50;1.90;;;;;;;7.91;76.75;98627.69;4997350;28;103182;-75
2023/12/30 06:30:48;;;;;;;3.47;1.80;;;;;;;7.88;77.67;98635.06;4975845;28;102904;-75
2023/12/30 06:33:16;;;;;;;2.10;1.52;;;;;;;7.93;76.87;98638.06;4993298;28;104054;-75
2023/12/30 06:35:44;;;;;;;5.05;1.63;;;;;;;7.94;77.29;98629.19;4991630;28;103287;-75
2023/12/30 06:38:13;;;;;;;3.17;1.73;;;;;;;7.96;77.18;98641.25;4976815;28;104585;-74
2023/12/30 06:40:42;;;;;;;2.22;1.45;;;;;;;8.02;76.78;98642.44;4997166;28;102600;-74
2023/12/30 06:43:10;;;;;;;2.15;1.38;;;;;;;8.01;76.78;98645.22;4994478;28;104113;-75
2023/12/30 06:45:39;;;;;;;2.92;1.83;;;;;;;8.05;77.19;98650.03;4981941;28;104200;-75
2023/12/30 06:48:07;;;;;;;4.95;1.77;;;;;;;8.09;76.49;98658.47;4999341;28;103772;-75
2023/12/30 06:50:35;;;;;;;3.08;1.40;;;;;;;8.10;76.41;98655.69;4978353;28;102864;-80
2023/12/30 06:53:03;;;;;;;3.63;1.92;;;;;;;8.10;76.83;98660.94;5004700;28;103134;-75
2023/12/30 06:55:31;;;;;;;2.47;1.67;;;;;;;8.05;77.12;98660.56;4998707;28;103301;-74
2023/12/30 06:58:08;;;;;;;2.35;1.58;;;;;;;8.06;76.75;98659.59;4993691;28;103248;-75
2023/12/30 07:00:40;;;;;;;3.90;1.50;;;;;;;8.09;77.10;98663.75;4980751;28;102735;-72
2023/12/30 07:03:08;;;;;;;2.72;1.70;;;;;;;8.04;76.88;98666.84;4993382;28;103639;-75
2023/12/30 07:05:37;;;;;;;2.80;1.63;;;;;;;8.11;77.12;98667.88;4975188;28;104597;-72
2023/12/30 07:08:05;;;;;;;3.03;1.60;;;;;;;8.17;77.20;98668.25;4999083;28;102703;-72
2023/12/30 07:10:33;;;;;;;1.38;1.23;;;;;;;8.22;76.55;98668.63;4990320;28;102673;-72
2023/12/30 07:13:01;;;;;;;2.95;1.60;;;;;;;8.13;77.08;98671.22;4982665;28;102801;-73
2023/12/30 07:15:32;;;;;;;1.85;1.40;;;;;;;8.13;77.39;98665.94;4979307;28;103231;-74
2023/12/30 07:18:02;;;;;;;2.40;1.60;;;;;;;8.17;76.95;98668.25;4994807;28;103404;-74
2023/12/30 07:24:43;;;;;;;1.98;1.30;;;;;;;8.22;76.60;98668.63;4990910;28;102937;-82
2023/12/30 07:27:10;;;;;;;2.80;1.55;;;;;;;8.24;76.76;98667.50;5000562;28;103761;-80
2023/12/30 07:29:38;;;;;;;2.20;1.38;;;;;;;8.26;76.86;98662.06;4982809;28;102607;-81
2023/12/30 07:32:06;;;;;;;2.40;1.50;;;;;;;8.28;76.39;98668.03;4998168;28;102537;-76
2023/12/30 07:34:35;;;;;;;2.40;1.50;;;;;;;8.24;76.46;98671.94;4997537;28;102835;-75
2023/12/30 07:37:04;;;;;;;3.15;1.60;;;;;;;8.27;76.42;98669.00;4997808;28;103304;-74
2023/12/30 07:39:35;;;;;;;2.53;1.48;;;;;;;8.25;76.28;98671.78;4984998;28;103002;-80
2023/12/30 07:42:03;;;;;;;2.92;1.80;;;;;;;8.30;76.29;98671.31;4988271;28;102703;-79
2023/12/30 07:44:33;;;;;;;2.55;1.63;;;;;;;8.31;76.29;98672.97;4987416;28;104280;-77
2023/12/30 07:47:01;;;;;;;3.53;1.80;;;;;;;8.35;76.63;98679.59;4986721;28;104582;-81
2023/12/30 07:49:29;;;;;;;3.10;1.70;;;;;;;8.38;76.25;98678.47;5001557;28;103156;-81
2023/12/30 07:52:01;;;;;;;2.80;1.67;;;;;;;8.37;76.02;98684.72;4982187;28;103562;-80
2023/12/30 07:54:29;;;;;;;6.85;2.08;;;;;;;8.36;76.32;98683.91;5003359;28;103450;-80
2023/12/30 07:56:57;;;;;;;4.03;1.65;;;;;;;8.41;76.56;98688.72;5003857;28;103118;-80
2023/12/30 07:59:25;;;;;;;2.47;1.63;;;;;;;8.45;76.30;98695.34;4985700;28;103564;-80
2023/12/30 08:01:56;;;;;;;2.53;1.50;;;;;;;8.41;76.30;98692.19;4997721;28;102561;-80
2023/12/30 08:04:25;;;;;;;2.47;1.70;;;;;;;8.48;76.15;98696.91;4985060;28;102752;-80
2023/12/30 08:06:54;;;;;;;2.83;1.58;;;;;;;8.53;76.10;98691.94;4998413;28;103045;-80
2023/12/30 08:09:23;;;;;;;2.30;1.70;;;;;;;8.51;75.46;98693.94;4993323;28;103190;-81
2023/12/30 08:11:51;;;;;;;3.25;1.52;;;;;;;8.52;75.99;98690.31;4999346;28;102582;-80
2023/12/30 08:14:29;;;;;;;2.83;1.45;;;;;;;8.54;76.18;98693.63;4998474;28;102632;-88
2023/12/30 08:16:58;;;;;;;4.78;1.52;;;;;;;8.58;76.08;98695.81;4983320;28;104146;-86
2023/12/30 08:19:27;;;;;;;3.03;1.90;;;;;;;8.66;76.01;98695.03;5000381;28;103252;-82
2023/12/30 08:26:09;;;;;;;2.50;1.67;;;;;;;8.68;75.85;98694.88;4993943;28;102531;-80
2023/12/30 08:28:37;;;;;;;3.15;1.98;;;;;;;8.75;75.35;98702.00;5002443;28;102602;-79
2023/12/30 08:31:06;;;;;;;3.00;1.85;;;;;;;8.68;75.70;98710.72;5000156;28;102639;-80
2023/12/30 08:33:34;;;;;;;2.85;1.70;;;;;;;8.77;75.80;98709.78;4998277;28;102750;-80
2023/12/30 08:36:02;;;;;;;2.95;1.73;;;;;;;8.78;75.61;98704.31;5007769;28;102692;-80
2023/12/30 08:38:31;;;;;;;2.78;1.55;;;;;;;8.88;75.32;98708.66;5001316;28;104672;-80
2023/12/30 08:40:59;;;;;;;3.13;1.88;;;;;;;8.90;75.00;98710.16;4983907;28;104311;-81
2023/12/30 08:43:29;;;;;;;3.40;1.80;;;;;;;8.93;75.55;98714.31;4984826;28;102677;-80
2023/12/30 08:45:57;;;;;;;2.28;1.52;;;;;;;8.95;74.77;98709.72;4996819;28;104287;-80
2023/12/30 08:48:25;;;;;;;3.05;1.70;;;;;;;8.93;74.80;98716.94;4986023;28;102886;-79
2023/12/30 08:50:53;;;;;;;2.60;1.50;;;;;;;8.96;74.88;98709.53;4997344;28;103195;-80
2023/12/30 08:53:24;;;;;;;2.13;1.40;;;;;;;8.96;74.94;98717.47;4999514;28;102610;-79
2023/12/30 08:55:54;;;;;;;1.88;1.45;;;;;;;9.03;74.45;98712.38;4996618;28;102664;-79
2023/12/30 08:58:23;;;;;;;3.30;1.40;;;;;;;9.03;74.87;98715.03;4980084;28;103222;-78
2023/12/30 09:00:53;;;;;;;2.75;1.60;;;;;;;9.07;74.73;98712.91;5000423;28;103913;-79
2023/12/30 09:03:21;;;;;;;2.28;1.40;;;;;;;9.28;74.45;98718.59;4983819;28;102684;-80
2023/12/30 09:05:49;;;;;;;4.38;1.52;;;;;;;9.30;73.59;98715.78;5001602;28;103265;-80
2023/12/30 09:08:18;;;;;;;3.03;1.80;;;;;;;9.19;74.07;98716.91;5002638;28;103260;-80
2023/12/30 09:10:46;;;;;;;1.85;1.33;;;;;;;9.23;74.10;98722.72;5000110;28;103264;-80
2023/12/30 09:13:14;;;;;;;2.28;1.40;;;;;;;9.26;74.38;98731.16;5002291;28;102703;-79
2023/12/30 09:15:42;;;;;;;6.05;1.60;;;;;;;9.18;74.56;98728.47;4983894;28;102822;-80
2023/12/30 09:18:11;;;;;;;2.28;1.50;;;;;;;9.20;75.24;98736.25;5002123;28;104463;-80
2023/12/30 09:20:42;;;;;;;2.35;1.50;;;;;;;9.26;74.93;98735.59;5004570;28;103188;-79
2023/12/30 09:27:28;;;;;;;1.95;1.45;;;;;;;9.25;75.57;98715.47;5003132;28;102765;-80
2023/12/30 09:29:56;;;;;;;2.15;1.60;;;;;;;9.20;75.44;98717.75;4988283;28;104390;-80
2023/12/30 09:32:23;;;;;;;3.70;1.77;;;;;;;9.06;75.58;98719.97;5007306;28;103265;-81
2023/12/30 09:34:53;;;;;;;2.25;1.38;;;;;;;9.19;75.68;98718.72;5002416;28;102566;-80
2023/12/30 09:37:22;;;;;;;3.03;1.60;;;;;;;9.23;74.94;98717.41;5005167;28;103839;-80
2023/12/30 09:39:50;;;;;;;4.20;1.77;;;;;;;9.23;74.93;98725.34;5005738;28;104428;-80
2023/12/30 09:42:18;;;;;;;3.28;1.90;;;;;;;9.26;74.53;98725.03;5002942;28;103381;-80
2023/12/30 09:44:47;;;;;;;3.70;1.88;;;;;;;9.16;74.51;98724.31;5001084;28;102673;-80
2023/12/30 09:47:16;;;;;;;2.70;1.73;;;;;;;9.13;74.14;98723.66;4986876;28;102728;-80
2023/12/30 09:49:45;;;;;;;2.15;1.50;;;;;;;9.45;73.16;98719.47;5004825;28;103919;-80
2023/12/30 09:52:15;;;;;;;3.22;1.80;;;;;;;9.66;72.55;98725.34;4988528;28;104256;-79
2023/12/30 09:54:43;;;;;;;2.42;1.50;;;;;;;9.79;71.60;98721.22;4986807;28;102633;-80
2023/12/30 09:57:16;;;;;;;;;;;;;;;9.86;70.85;98720.56;5004905;28;102688;-80
2023/12/30 09:59:46;;;;;;;2.60;1.48;;;;;;;9.94;70.33;98723.22;4984230;28;104025;-79
2023/12/30 10:02:14;;;;;;;2.03;1.60;;;;;;;10.05;69.81;98720.28;5000799;28;103330;-79
2023/12/30 10:04:43;;;;;;;4.35;1.95;;;;;;;10.24;68.98;98720.94;5002922;28;102530;-79
2023/12/30 10:07:11;;;;;;;2.50;1.63;;;;;;;10.38;68.43;98728.25;5002032;28;102725;-79
2023/12/30 10:09:41;;;;;;;4.70;1.75;;;;;;;10.24;65.83;98731.53;5002452;28;104157;-80
2023/12/30 10:12:10;;;;;;;2.05;1.40;;;;;;;10.33;65.93;98725.22;4984768;28;103336;-79
2023/12/30 10:14:38;;;;;;;1.70;1.25;;;;;;;10.42;66.14;98726.91;4986282;28;102585;-79
2023/12/30 10:17:06;;;;;;;1.80;1.27;;;;;;;10.54;64.07;98729.22;5007052;28;104074;-79
2023/12/30 10:19:34;;;;;;;3.25;1.80;;;;;;;10.53;63.80;98732.88;5003765;28;103371;-79
2023/12/30 10:22:02;;;;;;;4.53;1.80;;;;;;;10.60;62.17;98728.56;5005425;28;103355;-79
2023/12/30 10:24:31;;;;;;;4.65;1.92;;;;;;;10.76;62.77;98733.81;5002568;28;102687;-80
2023/12/30 10:27:04;;;;;;;6.03;1.50;;;;;;;10.85;60.56;98731.19;5001702;28;104018;-79
2023/12/30 10:29:32;;;;;;;3.17;1.40;;;;;;;10.75;60.13;98732.16;4983323;28;103364;-79
2023/12/30 10:32:21;;;;;;;3.15;1.40;;;;;;;10.70;59.43;98734.53;4980462;28;104255;-79
2023/12/30 10:34:50;;;;;;;2.35;1.42;;;;;;;10.61;59.79;98730.19;4982685;28;102748;-79
2023/12/30 10:37:23;;;;;;;2.13;1.50;;;;;;;10.70;60.79;98729.22;5003136;28;103742;-79
2023/12/30 10:39:54;;;;;;;1.77;1.30;;;;;;;10.70;59.54;98721.28;4998820;28;103314;-79
2023/12/30 10:42:23;;;;;;;3.17;1.42;;;;;;;10.72;59.51;98711.31;4983973;28;103237;-79
2023/12/30 10:44:51;;;;;;;1.92;1.40;;;;;;;10.76;59.43;98714.47;5002435;28;102725;-79
2023/12/30 10:47:22;;;;;;;2.38;1.10;;;;;;;10.89;59.50;98716.59;4999147;28;104209;-79
2023/12/30 10:49:52;;;;;;;2.15;1.35;;;;;;;10.98;58.53;98714.72;4982663;28;104252;-80
2023/12/30 10:52:23;;;;;;;1.85;1.42;;;;;;;10.96;58.72;98712.25;4979764;28;104524;-79
2023/12/30 10:55:04;;;;;;;3.72;1.50;;;;;;;10.97;57.64;98713.91;5002052;28;102648;-79
2023/12/30 10:57:37;;;;;;;2.60;1.85;;;;;;;11.17;58.25;98700.28;5002569;28;103668;-79
2023/12/30 11:00:09;;;;;;;2.00;1.33;;;;;;;11.24;58.05;98706.50;5000420;28;104749;-79
2023/12/30 11:02:38;;;;;;;2.08;1.48;;;;;;;11.10;56.69;98706.25;5000779;28;103368;-79
2023/12/30 11:05:08;;;;;;;3.47;1.40;;;;;;;11.23;55.98;98702.25;4999494;28;102715;-79
2023/12/30 11:07:37;;;;;;;3.78;1.40;;;;;;;11.23;55.39;98704.88;4981835;28;102637;-79
2023/12/30 11:10:16;;;;;;;1.60;1.20;;;;;;;11.38;55.04;98700.50;4995924;28;104175;-79
2023/12/30 11:12:46;;;;;;;1.05;0.95;;;;;;;11.58;54.96;98695.59;4997047;28;106813;-79
2023/12/30 11:15:28;;;;;;;2.58;1.20;;;;;;;11.76;54.25;98692.69;4986578;28;102762;-79
2023/12/30 11:17:59;;;;;;;2.00;1.60;;;;;;;11.66;54.43;98689.41;4999682;28;103547;-82
2023/12/30 11:20:30;;;;;;;1.45;1.00;;;;;;;11.85;54.12;98689.97;5001544;28;103337;-81
2023/12/30 11:22:59;;;;;;;3.55;1.50;;;;;;;11.85;53.85;98689.97;4986415;28;104135;-78
2023/12/30 11:25:37;;;;;;;2.38;1.30;;;;;;;11.63;53.21;98684.44;5002295;28;102689;-78
2023/12/30 11:28:15;;;;;;;26.60;2.95;;;;;;;11.61;53.17;98681.97;5002175;28;103963;-78
2023/12/30 11:30:45;;;;;;;10.68;2.22;;;;;;;11.81;53.38;98683.34;4977102;28;103923;-79
2023/12/30 11:33:14;;;;;;;4.72;1.40;;;;;;;12.00;52.73;98677.59;4982543;28;103249;-81
2023/12/30 11:35:42;;;;;;;2.05;1.30;;;;;;;11.97;53.19;98671.81;4999644;28;102710;-81
2023/12/30 11:38:12;;;;;;;1.65;0.93;;;;;;;11.99;52.62;98670.63;5000383;28;102747;-80
2023/12/30 11:40:49;;;;;;;4.78;1.80;;;;;;;12.03;52.07;98666.63;4984678;28;104531;-80
2023/12/30 11:43:20;;;;;;;1.63;0.98;;;;;;;12.01;51.94;98675.78;4995087;28;103225;-77
2023/12/30 11:45:48;;;;;;;1.70;1.15;;;;;;;12.04;52.58;98673.59;5002911;28;102652;-74
2023/12/30 11:48:16;;;;;;;1.58;1.00;;;;;;;12.31;52.57;98674.00;4996085;28;104841;-78
2023/12/30 11:50:44;;;;;;;1.95;1.63;;;;;;;12.37;52.01;98667.19;4981654;28;104201;-78
2023/12/30 11:53:12;;;;;;;1.35;1.08;;;;;;;12.39;52.40;98665.16;4997360;28;103303;-82
2023/12/30 11:55:40;;;;;;;2.42;1.10;;;;;;;12.36;53.31;98663.69;4976032;28;102689;-76
2023/12/30 11:58:10;;;;;;;1.58;1.23;;;;;;;12.52;52.56;98657.38;4992687;28;104118;-73
2023/12/30 12:00:40;;;;;;;1.60;1.08;;;;;;;12.39;51.73;98660.69;4998120;28;104102;-74
2023/12/30 12:03:07;;;;;;;2.60;1.20;;;;;;;12.40;52.96;98656.19;4995128;28;103273;-76
2023/12/30 12:05:35;;;;;;;2.85;1.40;;;;;;;12.79;52.00;98662.28;4997884;28;102762;-76
2023/12/30 12:08:04;;;;;;;1.83;1.05;;;;;;;12.85;51.72;98665.03;4991650;28;103417;-76
2023/12/30 12:10:34;;;;;;;2.45;1.15;;;;;;;12.97;50.99;98657.41;4976268;28;106448;-78
2023/12/30 12:13:06;;;;;;;1.55;1.20;;;;;;;13.01;51.47;98658.69;4997106;28;103230;-83
2023/12/30 12:15:34;;;;;;;1.35;1.10;;;;;;;13.45;50.33;98653.50;4992523;28;102748;-81
2023/12/30 12:18:04;;;;;;;3.05;1.40;;;;;;;13.10;50.43;98657.56;4979130;28;104616;-78
2023/12/30 12:20:37;;;;;;;2.70;1.23;;;;;;;13.43;50.79;98649.19;4976302;28;103231;-78
2023/12/30 12:23:06;;;;;;;2.95;1.10;;;;;;;13.71;50.37;98647.63;4974732;28;103426;-75